createdAt,value
2022-11-15T00:02:06.101Z,16.60
2022-11-15T00:04:52.222Z,19.63
2022-11-15T00:07:55.070Z,20.73
2022-11-15T00:10:43.699Z,16.90
2022-11-15T00:13:31.192Z,23.35
2022-11-15T00:16:17.952Z,21.10
2022-11-15T00:19:04.581Z,18.85
2022-11-15T00:21:50.714Z,15.82
2022-11-15T00:24:36.981Z,14.65
2022-11-15T00:27:24.399Z,14.40
2022-11-15T00:30:11.474Z,16.85
2022-11-15T00:32:57.954Z,11.23
2022-11-15T00:35:43.985Z,15.75
2022-11-15T00:38:33.119Z,14.32
2022-11-15T00:41:19.323Z,16.17
2022-11-15T00:44:06.701Z,17.90
2022-11-15T00:46:52.907Z,25.55
2022-11-15T00:49:39.222Z,18.35
2022-11-15T00:52:25.569Z,14.30
2022-11-15T00:55:15.851Z,15.98
2022-11-15T00:58:02.185Z,13.95
2022-11-15T01:00:49.625Z,13.98
2022-11-15T01:03:36.010Z,16.48
2022-11-15T01:06:24.168Z,16.55
2022-11-15T01:09:10.433Z,15.15
2022-11-15T01:11:56.479Z,14.48
2022-11-15T01:14:42.549Z,15.25
2022-11-15T01:17:29.980Z,13.30
2022-11-15T01:20:16.038Z,15.38
2022-11-15T01:23:02.038Z,13.65
2022-11-15T01:25:48.155Z,15.10
2022-11-15T01:28:34.752Z,15.25
2022-11-15T01:31:22.578Z,14.85
2022-11-15T01:34:10.147Z,14.57
2022-11-15T01:36:56.166Z,16.13
2022-11-15T01:39:42.111Z,16.45
2022-11-15T01:42:28.495Z,17.50
2022-11-15T01:45:16.287Z,14.30
2022-11-15T01:48:02.465Z,16.25
2022-11-15T01:50:51.939Z,14.68
2022-11-15T01:53:42.255Z,14.70
2022-11-15T01:56:34.090Z,33.20
2022-11-15T01:59:20.819Z,36.10
2022-11-15T02:02:06.871Z,30.63
2022-11-15T02:04:52.920Z,46.10
2022-11-15T02:07:40.361Z,29.13
2022-11-15T02:10:26.783Z,32.85
2022-11-15T02:13:13.205Z,31.85
2022-11-15T02:16:08.998Z,24.15
2022-11-15T02:19:02.115Z,16.33
2022-11-15T02:21:56.892Z,15.63
2022-11-15T02:25:32.529Z,13.27
2022-11-15T02:28:36.912Z,13.60
2022-11-15T02:34:22.144Z,11.43
2022-11-15T02:37:17.842Z,13.13
2022-11-15T02:40:14.355Z,15.90
2022-11-15T02:43:26.276Z,14.90
2022-11-15T02:46:20.389Z,11.00
2022-11-15T02:49:07.744Z,10.52
2022-11-15T02:51:55.042Z,12.07
2022-11-15T02:54:41.378Z,12.13
2022-11-15T02:57:39.743Z,9.90
2022-11-15T03:00:26.175Z,12.55
2022-11-15T03:03:39.575Z,11.13
2022-11-15T03:06:36.975Z,11.00
2022-11-15T03:09:32.618Z,12.60
2022-11-15T03:12:26.655Z,9.70
2022-11-15T03:18:06.859Z,9.45
2022-11-15T03:20:53.767Z,11.30
2022-11-15T03:23:42.271Z,10.93
2022-11-15T03:26:30.899Z,12.07
2022-11-15T03:29:21.857Z,14.13
2022-11-15T03:32:13.281Z,9.95
2022-11-15T03:35:03.227Z,10.88
2022-11-15T03:37:55.675Z,9.82
2022-11-15T03:40:47.243Z,10.65
2022-11-15T03:43:43.145Z,9.45
2022-11-15T03:46:34.709Z,9.30
2022-11-15T03:49:26.345Z,8.40
2022-11-15T03:52:13.258Z,8.15
2022-11-15T03:55:02.852Z,8.13
2022-11-15T03:57:53.095Z,8.60
2022-11-15T04:00:39.088Z,9.63
2022-11-15T04:03:25.238Z,10.65
2022-11-15T04:06:11.668Z,9.02
2022-11-15T04:08:57.629Z,11.63
2022-11-15T04:11:43.677Z,9.23
2022-11-15T04:14:31.002Z,8.25
2022-11-15T04:17:16.981Z,10.18
2022-11-15T04:20:21.100Z,10.43
2022-11-15T04:26:14.260Z,8.27
2022-11-15T04:29:17.953Z,10.55
2022-11-15T04:32:07.717Z,10.73
2022-11-15T04:34:54.124Z,11.45
2022-11-15T04:37:43.879Z,9.02
2022-11-15T04:40:32.935Z,12.80
2022-11-15T04:43:18.910Z,8.45
2022-11-15T04:46:05.394Z,10.48
2022-11-15T04:48:58.334Z,9.93
2022-11-15T04:51:45.589Z,10.93
2022-11-15T04:54:31.958Z,13.57
2022-11-15T04:57:18.201Z,12.45
2022-11-15T05:00:05.504Z,8.38
2022-11-15T05:03:09.458Z,8.05
2022-11-15T05:05:57.136Z,6.47
2022-11-15T05:08:43.374Z,10.57
2022-11-15T05:11:29.311Z,7.07
2022-11-15T05:14:15.993Z,7.93
2022-11-15T05:17:02.514Z,7.75
2022-11-15T05:19:49.430Z,9.15
2022-11-15T05:22:36.739Z,9.15
2022-11-15T05:25:23.615Z,8.18
2022-11-15T05:28:09.905Z,8.55
2022-11-15T05:31:02.524Z,8.85
2022-11-15T05:33:48.855Z,10.07
2022-11-15T05:36:38.438Z,11.20
2022-11-15T05:39:26.870Z,7.18
2022-11-15T05:42:15.152Z,7.00
2022-11-15T05:45:03.577Z,7.90
2022-11-15T05:47:51.579Z,8.07
2022-11-15T05:50:40.550Z,9.52
2022-11-15T05:53:27.792Z,6.82
2022-11-15T05:56:16.374Z,7.50
2022-11-15T05:59:03.349Z,11.30
2022-11-15T06:01:49.519Z,10.18
2022-11-15T06:04:35.442Z,10.05
2022-11-15T06:07:21.896Z,12.73
2022-11-15T06:10:09.276Z,9.73
2022-11-15T06:13:00.426Z,8.40
2022-11-15T06:15:46.509Z,8.52
2022-11-15T06:18:34.364Z,8.90
2022-11-15T06:21:20.584Z,8.88
2022-11-15T06:24:07.727Z,7.03
2022-11-15T06:26:53.894Z,8.10
2022-11-15T06:29:41.524Z,7.75
2022-11-15T06:32:27.483Z,7.20
2022-11-15T06:35:13.646Z,7.93
2022-11-15T06:38:05.114Z,8.93
2022-11-15T06:40:51.097Z,13.15
2022-11-15T06:43:37.993Z,9.82
2022-11-15T06:46:25.376Z,7.07
2022-11-15T06:49:11.240Z,6.18
2022-11-15T06:51:57.620Z,8.77
2022-11-15T06:54:43.953Z,6.93
2022-11-15T06:57:29.892Z,7.30
2022-11-15T07:00:17.803Z,6.50
2022-11-15T07:03:05.372Z,7.20
2022-11-15T07:05:55.534Z,10.23
2022-11-15T07:08:42.619Z,12.10
2022-11-15T07:11:28.938Z,14.38
2022-11-15T07:14:15.223Z,10.00
2022-11-15T07:17:01.195Z,10.70
2022-11-15T07:19:48.784Z,28.83
2022-11-15T07:22:34.898Z,13.80
2022-11-15T07:25:20.851Z,9.27
2022-11-15T07:28:07.191Z,11.52
2022-11-15T07:30:53.919Z,8.40
2022-11-15T07:33:39.842Z,7.68
2022-11-15T07:36:27.370Z,10.65
2022-11-15T07:39:14.960Z,12.40
2022-11-15T07:42:19.305Z,14.13
2022-11-15T07:45:06.365Z,12.75
2022-11-15T07:47:52.348Z,8.88
2022-11-15T07:50:38.847Z,11.55
2022-11-15T07:53:26.454Z,9.38
2022-11-15T07:56:13.618Z,9.38
2022-11-15T07:59:00.098Z,9.77
2022-11-15T08:01:46.350Z,10.80
2022-11-15T08:04:32.782Z,9.57
2022-11-15T08:07:18.989Z,10.13
2022-11-15T08:10:08.787Z,9.20
2022-11-15T08:13:01.470Z,7.18
2022-11-15T08:15:47.579Z,8.32
2022-11-15T08:18:34.045Z,11.95
2022-11-15T08:21:21.840Z,10.95
2022-11-15T08:24:08.107Z,8.90
2022-11-15T08:26:55.899Z,10.80
2022-11-15T08:29:42.201Z,9.18
2022-11-15T08:32:28.519Z,9.50
2022-11-15T08:35:14.935Z,8.40
2022-11-15T08:38:01.075Z,11.43
2022-11-15T08:40:47.225Z,12.75
2022-11-15T08:43:35.053Z,11.38
2022-11-15T08:46:21.174Z,11.65
2022-11-15T08:49:07.522Z,6.55
2022-11-15T08:51:54.044Z,8.48
2022-11-15T08:54:40.032Z,8.65
2022-11-15T08:57:26.488Z,8.70
2022-11-15T09:00:15.575Z,13.35
2022-11-15T09:03:01.716Z,16.52
2022-11-15T09:05:47.873Z,16.65
2022-11-15T09:08:47.489Z,11.73
2022-11-15T09:11:34.278Z,11.70
2022-11-15T09:14:20.430Z,11.07
2022-11-15T09:17:10.692Z,7.85
2022-11-15T09:19:56.672Z,7.03
2022-11-15T09:22:42.763Z,7.35
2022-11-15T09:25:29.053Z,8.98
2022-11-15T09:28:15.170Z,9.80
2022-11-15T09:31:01.679Z,11.02
2022-11-15T09:33:49.154Z,12.73
2022-11-15T09:36:35.136Z,10.90
2022-11-15T09:39:22.515Z,11.63
2022-11-15T09:42:31.276Z,15.05
2022-11-15T09:45:24.057Z,18.40
2022-11-15T09:48:35.994Z,11.57
2022-11-15T09:51:30.915Z,8.05
2022-11-15T09:54:37.909Z,9.38
2022-11-15T09:56:54.844Z,6.45
2022-11-15T09:59:37.314Z,8.95
2022-11-15T10:02:15.539Z,8.25
2022-11-15T10:04:44.063Z,7.50
2022-11-15T10:07:20.553Z,8.63
2022-11-15T10:09:54.698Z,9.77
2022-11-15T10:12:22.729Z,7.93
2022-11-15T10:14:54.789Z,10.68
2022-11-15T10:17:51.616Z,6.82
2022-11-15T10:20:23.114Z,7.55
2022-11-15T10:22:53.554Z,12.95
2022-11-15T10:25:24.745Z,12.48
2022-11-15T10:27:58.724Z,11.40
2022-11-15T10:30:34.528Z,8.95
2022-11-15T10:33:12.122Z,8.90
2022-11-15T10:35:40.142Z,6.82
2022-11-15T10:38:10.942Z,8.20
2022-11-15T10:40:40.299Z,8.52
2022-11-15T10:43:16.341Z,8.18
2022-11-15T10:45:44.656Z,7.47
2022-11-15T10:48:27.850Z,8.73
2022-11-15T10:50:57.230Z,9.25
2022-11-15T10:53:32.623Z,6.38
2022-11-15T10:56:05.615Z,5.90
2022-11-15T10:58:37.836Z,5.88
2022-11-15T11:01:18.073Z,8.02
2022-11-15T11:03:47.456Z,9.20
2022-11-15T11:06:17.379Z,5.15
2022-11-15T11:08:58.246Z,8.20
2022-11-15T11:11:26.326Z,10.48
2022-11-15T11:13:54.502Z,9.30
2022-11-15T11:16:44.416Z,6.20
2022-11-15T11:19:26.670Z,6.68
2022-11-15T11:22:05.211Z,7.68
2022-11-15T11:24:40.948Z,6.45
2022-11-15T11:27:28.918Z,6.63
2022-11-15T11:30:10.628Z,6.75
2022-11-15T11:33:03.023Z,7.00
2022-11-15T11:35:34.628Z,6.90
2022-11-15T11:38:17.015Z,7.68
2022-11-15T11:41:02.101Z,9.38
2022-11-15T11:43:39.719Z,7.53
2022-11-15T11:46:17.800Z,4.60
2022-11-15T11:48:48.215Z,6.07
2022-11-15T11:51:20.892Z,5.50
2022-11-15T11:53:54.933Z,5.03
2022-11-15T11:56:30.323Z,5.50
2022-11-15T11:59:04.173Z,5.53
2022-11-15T12:01:37.562Z,7.78
2022-11-15T12:06:43.578Z,6.78
2022-11-15T12:09:17.479Z,5.00
2022-11-15T12:11:53.764Z,5.22
2022-11-15T12:14:29.405Z,5.20
2022-11-15T12:16:57.055Z,6.15
2022-11-15T12:19:24.685Z,5.93
2022-11-15T12:21:58.816Z,6.47
2022-11-15T12:24:30.550Z,7.68
2022-11-15T12:27:05.433Z,8.02
2022-11-15T12:29:38.556Z,10.48
2022-11-15T12:32:13.220Z,5.75
2022-11-15T12:34:45.860Z,6.97
2022-11-15T12:37:34.872Z,6.83
2022-11-15T12:40:19.866Z,5.00
2022-11-15T12:43:05.143Z,8.30
2022-11-15T12:45:34.682Z,4.03
2022-11-15T12:48:38.322Z,6.10
2022-11-15T12:51:06.376Z,4.03
2022-11-15T12:53:35.837Z,4.60
2022-11-15T12:56:25.810Z,4.85
2022-11-15T12:58:57.847Z,4.93
2022-11-15T13:01:59.182Z,7.07
2022-11-15T13:04:30.996Z,5.57
2022-11-15T13:07:01.209Z,4.88
2022-11-15T13:09:57.173Z,4.10
2022-11-15T13:12:54.260Z,9.38
2022-11-15T13:15:52.146Z,5.18
2022-11-15T13:18:36.637Z,5.20
2022-11-15T13:21:29.367Z,4.22
2022-11-15T13:23:57.484Z,3.85
2022-11-15T13:26:25.292Z,4.30
2022-11-15T13:28:56.266Z,2.97
2022-11-15T13:31:28.840Z,4.20
2022-11-15T13:33:59.909Z,3.97
2022-11-15T13:36:30.351Z,5.47
2022-11-15T13:39:03.534Z,5.97
2022-11-15T13:41:33.540Z,4.07
2022-11-15T13:44:02.410Z,3.60
2022-11-15T13:46:33.520Z,4.00
2022-11-15T13:49:03.947Z,4.80
2022-11-15T13:51:39.248Z,5.55
2022-11-15T13:54:19.027Z,8.60
2022-11-15T13:56:51.132Z,7.03
2022-11-15T13:59:26.120Z,6.35
2022-11-15T14:01:56.043Z,6.63
2022-11-15T14:04:26.107Z,5.57
2022-11-15T14:06:57.145Z,6.28
2022-11-15T14:09:34.794Z,6.80
2022-11-15T14:12:22.454Z,5.80
2022-11-15T14:14:50.178Z,3.92
2022-11-15T14:17:24.465Z,5.55
2022-11-15T14:19:53.113Z,5.90
2022-11-15T14:22:23.210Z,10.80
2022-11-15T14:25:09.152Z,14.75
2022-11-15T14:27:36.710Z,11.65
2022-11-15T14:30:05.411Z,10.13
2022-11-15T14:32:45.769Z,11.27
2022-11-15T14:35:17.300Z,14.40
2022-11-15T14:37:45.155Z,15.15
2022-11-15T14:40:15.884Z,25.70
2022-11-15T14:42:44.182Z,13.07
2022-11-15T14:45:15.169Z,10.00
2022-11-15T14:47:44.853Z,4.80
2022-11-15T14:50:17.267Z,7.85
2022-11-15T14:52:45.237Z,5.50
2022-11-15T14:55:20.409Z,4.55
2022-11-15T14:57:48.044Z,4.85
2022-11-15T15:00:16.300Z,4.85
2022-11-15T15:02:46.804Z,4.80
2022-11-15T15:05:17.139Z,5.60
2022-11-15T15:07:45.209Z,4.07
2022-11-15T15:13:01.269Z,17.05
2022-11-15T15:15:34.040Z,10.80
2022-11-15T15:18:03.416Z,6.95
2022-11-15T15:20:31.261Z,5.35
2022-11-15T15:22:59.407Z,6.25
2022-11-15T15:25:29.989Z,15.05
2022-11-15T15:27:57.836Z,12.05
2022-11-15T15:30:27.093Z,13.18
2022-11-15T15:32:54.877Z,13.15
2022-11-15T15:35:23.840Z,17.23
2022-11-15T15:37:52.121Z,17.27
2022-11-15T15:40:22.180Z,6.22
2022-11-15T15:42:50.323Z,5.72
2022-11-15T15:45:19.390Z,5.80
2022-11-15T15:47:47.836Z,6.18
2022-11-15T15:50:26.181Z,8.00
2022-11-15T15:52:55.740Z,8.88
2022-11-15T15:55:23.876Z,13.07
2022-11-15T15:57:51.875Z,9.98
2022-11-15T16:00:20.794Z,6.70
2022-11-15T16:02:48.534Z,5.03
2022-11-15T16:05:16.670Z,7.78
2022-11-15T16:07:47.217Z,13.73
2022-11-15T16:10:21.264Z,15.05
2022-11-15T16:12:49.983Z,8.80
2022-11-15T16:15:18.126Z,5.95
2022-11-15T16:17:49.479Z,5.85
2022-11-15T16:20:32.666Z,5.32
2022-11-15T16:23:07.584Z,5.90
2022-11-15T16:25:41.017Z,4.43
2022-11-15T16:28:20.134Z,4.65
2022-11-15T16:30:51.119Z,6.53
2022-11-15T16:33:22.986Z,7.40
2022-11-15T16:35:50.571Z,5.40
2022-11-15T16:38:19.559Z,3.58
2022-11-15T16:40:47.152Z,3.88
2022-11-15T16:43:14.871Z,5.85
2022-11-15T16:45:42.404Z,3.88
2022-11-15T16:48:23.393Z,5.30
2022-11-15T16:50:50.942Z,6.72
2022-11-15T16:53:19.799Z,5.80
2022-11-15T16:55:47.303Z,4.68
2022-11-15T16:58:14.823Z,4.93
2022-11-15T17:00:42.453Z,5.30
2022-11-15T17:03:10.031Z,6.20
2022-11-15T17:05:37.578Z,4.30
2022-11-15T17:08:05.095Z,5.95
2022-11-15T17:10:34.027Z,3.92
2022-11-15T17:13:01.530Z,6.00
2022-11-15T17:15:29.396Z,5.15
2022-11-15T17:17:57.116Z,5.05
2022-11-15T17:20:26.688Z,8.45
2022-11-15T17:22:54.597Z,7.75
2022-11-15T17:25:22.126Z,5.10
2022-11-15T17:27:51.081Z,6.45
2022-11-15T17:30:20.192Z,9.20
2022-11-15T17:32:48.062Z,6.47
2022-11-15T17:35:16.125Z,6.40
2022-11-15T17:37:43.872Z,5.13
2022-11-15T17:40:12.211Z,5.47
2022-11-15T17:42:41.783Z,4.93
2022-11-15T17:45:12.207Z,5.28
2022-11-15T17:47:39.756Z,7.15
2022-11-15T17:50:07.479Z,9.00
2022-11-15T17:52:35.010Z,5.28
2022-11-15T17:55:02.571Z,6.72
2022-11-15T17:57:30.060Z,6.60
2022-11-15T17:59:57.598Z,5.60
2022-11-15T18:02:26.479Z,8.27
2022-11-15T18:04:54.015Z,9.07
2022-11-15T18:07:21.701Z,14.77
2022-11-15T18:09:49.291Z,8.80
2022-11-15T18:12:16.957Z,6.13
2022-11-15T18:14:44.519Z,8.18
2022-11-15T18:17:12.054Z,29.15
2022-11-15T18:19:40.948Z,21.67
2022-11-15T18:22:10.138Z,18.08
2022-11-15T18:24:38.862Z,16.38
2022-11-15T18:27:07.318Z,12.55
2022-11-15T18:29:37.580Z,11.68
2022-11-15T18:32:11.222Z,8.85
2022-11-15T18:34:39.027Z,8.98
2022-11-15T18:37:08.219Z,8.05
2022-11-15T18:39:35.835Z,7.47
2022-11-15T18:42:03.496Z,53.35
2022-11-15T18:44:31.159Z,75.75
2022-11-15T18:46:58.925Z,29.73
2022-11-15T18:49:26.524Z,12.18
2022-11-15T18:51:54.039Z,9.38
2022-11-15T18:54:28.139Z,7.95
2022-11-15T18:56:58.327Z,8.88
2022-11-15T18:59:27.543Z,7.78
2022-11-15T19:01:55.899Z,9.07
2022-11-15T19:04:23.820Z,9.20
2022-11-15T19:06:53.261Z,11.30
2022-11-15T19:09:20.946Z,10.27
2022-11-15T19:11:51.294Z,6.13
2022-11-15T19:14:19.258Z,10.15
2022-11-15T19:16:51.970Z,6.72
2022-11-15T19:19:21.612Z,5.25
2022-11-15T19:21:49.213Z,6.32
2022-11-15T19:24:16.760Z,5.10
2022-11-15T19:26:45.059Z,5.00
2022-11-15T19:29:14.784Z,6.38
2022-11-15T19:31:42.900Z,4.85
2022-11-15T19:34:10.897Z,6.38
2022-11-15T19:36:39.937Z,5.80
2022-11-15T19:39:09.906Z,4.43
2022-11-15T19:41:41.998Z,6.68
2022-11-15T19:44:10.340Z,7.43
2022-11-15T19:46:39.844Z,8.07
2022-11-15T19:49:10.300Z,10.02
2022-11-15T19:51:38.796Z,11.20
2022-11-15T19:54:08.689Z,12.27
2022-11-15T19:56:37.319Z,13.63
2022-11-15T19:59:05.666Z,8.60
2022-11-15T20:01:36.018Z,8.57
2022-11-15T20:04:05.675Z,6.32
2022-11-15T20:06:35.044Z,7.95
2022-11-15T20:09:02.885Z,13.57
2022-11-15T20:11:30.701Z,14.70
2022-11-15T20:13:58.847Z,10.50
2022-11-15T20:16:26.939Z,9.30
2022-11-15T20:18:55.259Z,16.38
2022-11-15T20:21:24.367Z,18.40
2022-11-15T20:23:52.204Z,14.32
2022-11-15T20:26:20.563Z,13.35
2022-11-15T20:28:48.786Z,12.77
2022-11-15T20:31:17.256Z,15.02
2022-11-15T20:33:45.271Z,11.45
2022-11-15T20:36:15.276Z,13.57
2022-11-15T20:38:45.078Z,13.20
2022-11-15T20:41:12.647Z,18.00
2022-11-15T20:43:43.138Z,13.93
2022-11-15T20:46:11.138Z,10.85
2022-11-15T20:48:38.691Z,10.60
2022-11-15T20:51:08.319Z,9.85
2022-11-15T20:53:36.048Z,9.80
2022-11-15T20:56:08.212Z,9.10
2022-11-15T20:58:36.607Z,7.63
2022-11-15T21:01:05.330Z,7.18
2022-11-15T21:03:33.382Z,7.65
2022-11-15T21:06:01.009Z,4.82
2022-11-15T21:08:28.537Z,5.30
2022-11-15T21:11:13.876Z,5.97
2022-11-15T21:13:42.787Z,5.43
2022-11-15T21:16:10.275Z,6.97
2022-11-15T21:18:37.819Z,12.90
2022-11-15T21:21:06.541Z,9.32
2022-11-15T21:23:34.137Z,9.15
2022-11-15T21:26:01.666Z,8.65
2022-11-15T21:28:29.187Z,6.60
2022-11-15T21:31:00.838Z,7.88
2022-11-15T21:33:28.783Z,6.50
2022-11-15T21:35:56.947Z,7.22
2022-11-15T21:38:25.004Z,8.02
2022-11-15T21:40:53.272Z,7.38
2022-11-15T21:43:21.886Z,7.57
2022-11-15T21:45:59.055Z,5.45
2022-11-15T21:48:26.990Z,9.18
2022-11-15T21:50:58.647Z,6.93
2022-11-15T21:53:27.445Z,7.22
2022-11-15T21:55:54.987Z,8.55
2022-11-15T21:58:23.251Z,7.95
2022-11-15T22:01:08.876Z,9.07
2022-11-15T22:03:37.704Z,9.10
2022-11-15T22:06:05.649Z,5.95
2022-11-15T22:08:33.508Z,6.82
2022-11-15T22:11:01.670Z,7.97
2022-11-15T22:13:29.460Z,8.25
2022-11-15T22:15:57.243Z,7.97
2022-11-15T22:18:26.757Z,8.10
2022-11-15T22:20:56.996Z,6.68
2022-11-15T22:23:25.124Z,8.27
2022-11-15T22:25:53.298Z,6.88
2022-11-15T22:28:21.950Z,6.57
2022-11-15T22:30:50.876Z,7.93
2022-11-15T22:33:20.135Z,6.13
2022-11-15T22:35:48.076Z,8.85
2022-11-15T22:38:17.390Z,5.30
2022-11-15T22:40:46.437Z,7.35
2022-11-15T22:43:15.594Z,8.98
2022-11-15T22:45:48.743Z,6.20
2022-11-15T22:48:16.540Z,7.10
2022-11-15T22:50:44.723Z,11.40
2022-11-15T22:53:12.545Z,9.82
2022-11-15T22:55:41.974Z,6.63
2022-11-15T22:58:10.018Z,7.25
2022-11-15T23:00:38.303Z,7.00
2022-11-15T23:03:05.997Z,6.38
2022-11-15T23:05:33.726Z,7.20
2022-11-15T23:08:01.314Z,5.80
2022-11-15T23:10:46.549Z,7.25
2022-11-15T23:13:18.364Z,8.43
2022-11-15T23:16:06.028Z,6.15
2022-11-15T23:18:37.709Z,5.47
2022-11-15T23:21:12.080Z,6.32
2022-11-15T23:23:39.100Z,5.40
2022-11-15T23:26:07.208Z,5.32
2022-11-15T23:28:36.729Z,5.25
2022-11-15T23:31:23.839Z,6.75
2022-11-15T23:34:00.592Z,4.40
2022-11-15T23:36:29.145Z,6.45
2022-11-15T23:38:56.991Z,7.25
2022-11-15T23:41:24.984Z,9.45
2022-11-15T23:43:54.026Z,6.93
2022-11-15T23:46:21.615Z,6.07
2022-11-15T23:48:49.219Z,6.60
2022-11-15T23:51:16.818Z,6.68
2022-11-15T23:53:44.527Z,7.18
2022-11-15T23:56:13.575Z,8.55
2022-11-15T23:58:41.905Z,6.57
